Latest Weather Observations for Hindmarsh Island

IDS60801

Issued at 9:31 pm CST Thursday 24 September 2020 (issued every 10 minutes, with the page automatically refreshed every 10 minutes)

About weather observations | Map of weather stations | Latest weather observations for SA | Other Formats
Station Details ID: 023894 Name: HINDMARSH ISLAND AWS Lat: -35.52 Lon: 138.82 Height: 11.0 m
Data from the previous 72 hours. | See also: Recent months at Hindmarsh Island
Date/Time
CST
Temp
°C
App
Temp
°C
Dew
Point
°C
Rel
Hum
%
Delta-T
°C
Wind Press
QNH
hPa
Press
MSL
hPa
Rain since
9am
mm
Dir  Spd
km/h
Gust
km/h
Spd
kts
Gust
kts
24/09:30pm 9.2 3.7 4.0 70 2.3 W 22 32 12 17 1008.5 1008.5 4.8
24/09:00pm 9.1 4.6 4.3 72 2.1 WNW 17 26 9 14 1008.8 1008.8 4.8
24/08:30pm 9.6 3.7 4.0 68 2.5 WSW 24 35 13 19 1008.7 1008.7 4.8
24/08:00pm 9.8 3.3 4.8 71 2.2 WSW 28 37 15 20 1008.9 1008.9 4.8
24/07:30pm 9.8 2.4 5.2 73 2.1 WSW 33 46 18 25 1008.8 1008.8 4.8
24/07:00pm 9.9 1.5 5.7 75 1.9 SW 39 52 21 28 1008.5 1008.5 4.8
24/06:50pm 10.2 3.1 5.4 72 2.2 WSW 32 50 17 27 1008.4 1008.4 4.8
24/06:30pm 10.6 4.3 5.6 71 2.3 WSW 28 37 15 20 1008.4 1008.4 4.8
24/06:00pm 10.9 5.7 5.4 69 2.5 W 22 33 12 18 1008.2 1008.2 4.8
24/05:30pm 10.8 6.9 6.9 77 1.9 WNW 17 24 9 13 1008.2 1008.2 4.8
24/05:00pm 10.5 4.3 6.3 75 2.0 WNW 28 35 15 19 1008.2 1008.2 4.8
24/04:30pm 11.4 5.6 6.3 71 2.4 WSW 26 35 14 19 1008.1 1008.1 4.6
24/04:00pm 11.8 5.4 7.1 73 2.3 WSW 30 44 16 24 1007.9 1007.9 4.6
24/03:30pm 11.8 5.9 7.5 75 2.1 NW 28 37 15 20 1008.1 1008.1 4.6
24/03:00pm 10.5 6.6 7.2 80 1.6 WNW 17 30 9 16 1008.2 1008.2 4.6
24/02:30pm 10.4 5.5 7.1 80 1.6 NW 22 32 12 17 1009.0 1009.0 3.8
24/02:00pm 11.3 6.2 7.6 78 1.8 NW 24 32 13 17 1009.5 1009.5 2.6
24/01:30pm 10.6 4.1 6.7 77 1.8 NW 30 41 16 22 1009.9 1009.9 2.6
24/01:00pm 11.5 2.9 6.4 71 2.4 NW 41 65 22 35 1010.3 1010.3 1.6
24/12:31pm 14.7 7.3 5.2 53 4.5 NW 33 52 18 28 1010.3 1010.3 1.2
24/12:30pm 14.8 7.5 5.6 54 4.4 NW 33 48 18 26 1010.4 1010.4 1.2
24/12:15pm 14.5 7.8 5.8 56 4.1 NW 30 50 16 27 1010.6 1010.6 1.2
24/12:00pm 13.6 6.1 6.2 61 3.5 NW 35 50 19 27 1011.1 1011.1 1.2
24/11:30am 14.8 7.3 6.4 57 4.1 WNW 35 46 19 25 1011.6 1011.6 1.2
24/11:18am 14.5 6.8 5.3 54 4.3 WNW 35 54 19 29 1011.9 1011.9 1.2
24/11:00am 14.1 7.0 5.7 57 4.0 NW 32 46 17 25 1012.4 1012.4 1.2
24/10:38am 13.3 6.1 5.0 57 3.8 NW 32 52 17 28 1012.9 1012.9 1.2
24/10:30am 13.5 7.1 7.1 65 3.1 WNW 30 41 16 22 1013.1 1013.1 1.2
24/10:00am 12.5 7.8 7.6 72 2.4 WNW 22 32 12 17 1014.2 1014.2 1.2
24/09:30am 11.5 7.8 7.8 78 1.8 NW 17 24 9 13 1014.9 1014.9 1.2
24/09:08am 10.1 4.0 6.4 78 1.7 WNW 28 54 15 29 1015.1 1015.1 1.2
24/09:00am 11.4 7.1 7.1 75 2.1 W 19 24 10 13 1015.3 1015.3 0.4
24/08:30am 11.9 7.5 6.6 70 2.5 NW 19 24 10 13 1015.3 1015.3 0.4
24/08:00am 10.8 7.7 7.1 78 1.8 NNW 13 20 7 11 1015.5 1015.5 0.4
24/07:30am 10.0 6.3 6.3 78 1.7 NNW 15 19 8 10 1015.7 1015.7 0.4
24/07:00am 9.1 5.8 6.2 82 1.3 N 13 20 7 11 1015.8 1015.8 0.4
24/06:30am 8.7 5.7 6.2 84 1.1 N 11 15 6 8 1015.8 1015.8 0.4
24/06:00am 8.6 5.2 5.9 83 1.2 NNW 13 15 7 8 1015.9 1015.9 0.4
24/05:30am 8.7 5.2 5.6 81 1.4 N 13 19 7 10 1015.9 1015.9 0.4
24/05:00am 8.7 4.8 5.3 79 1.5 NNW 15 20 8 11 1016.0 1016.0 0.4
24/04:30am 8.9 4.9 4.9 76 1.8 NW 15 20 8 11 1016.1 1016.1 0.4
24/04:00am 8.5 4.7 4.1 74 1.9 NW 13 17 7 9 1016.4 1016.4 0.4
24/03:30am 8.6 4.8 3.8 72 2.1 NW 13 17 7 9 1016.5 1016.5 0.4
24/03:00am 9.7 5.6 4.3 69 2.4 WNW 15 19 8 10 1016.8 1016.8 0.4
24/02:30am 8.6 4.5 4.2 74 1.9 NW 15 17 8 9 1017.1 1017.1 0.4
24/02:00am 8.3 4.5 4.1 75 1.8 NW 13 17 7 9 1017.5 1017.5 0.4
24/01:30am 8.5 4.4 4.3 75 1.8 WNW 15 20 8 11 1017.9 1017.9 0.4
24/01:00am 8.8 4.4 4.6 75 1.9 WNW 17 22 9 12 1018.2 1018.2 0.4
24/12:30am 9.5 5.2 5.1 74 2.0 WNW 17 20 9 11 1018.5 1018.5 0.4
24/12:00am 9.8 5.1 5.0 72 2.2 W 19 26 10 14 1018.7 1018.7 0.4
 
Date/Time
CST
Temp
°C
App
Temp
°C
Dew
Point
°C
Rel
Hum
%
Delta-T
°C
Wind Press
QNH
hPa
Press
MSL
hPa
Rain since
9am
mm
Dir  Spd
km/h
Gust
km/h
Spd
kts
Gust
kts
23/11:30pm 10.0 5.1 5.2 72 2.2 W 20 28 11 15 1019.1 1019.1 0.4
23/11:00pm 10.0 3.9 5.0 71 2.3 W 26 39 14 21 1019.3 1019.3 0.4
23/10:30pm 9.9 5.7 5.5 74 2.0 WNW 17 22 9 12 1019.5 1019.5 0.4
23/10:00pm 10.5 5.0 5.9 73 2.1 W 24 35 13 19 1019.9 1019.9 0.4
23/09:30pm 9.8 5.0 5.4 74 2.0 WNW 20 37 11 20 1020.1 1020.1 0.4
23/09:00pm 10.4 5.9 6.0 74 2.0 W 19 24 10 13 1020.1 1020.1 0.4
23/08:30pm 10.7 6.1 6.3 74 2.0 WSW 20 32 11 17 1020.0 1020.0 0.4
23/08:00pm 10.5 3.4 6.6 77 1.8 SW 33 44 18 24 1019.9 1019.9 0.4
23/07:41pm 11.5 5.5 7.0 74 2.1 WSW 28 48 15 26 1019.8 1019.8 0.0
23/07:30pm 11.8 5.0 5.2 64 3.0 WSW 30 37 16 20 1019.7 1019.7 0.0
23/07:00pm 11.8 4.6 5.2 64 3.0 SW 32 43 17 23 1019.4 1019.4 0.0
23/06:30pm 11.7 4.2 6.2 69 2.6 WSW 35 52 19 28 1019.3 1019.3 0.0
23/06:21pm 12.0 5.0 6.1 67 2.8 SW 32 52 17 28 1019.0 1019.0 0.0
23/06:00pm 12.0 4.7 5.4 64 3.0 SW 33 46 18 25 1018.9 1018.9 0.0
23/05:30pm 12.3 5.4 6.6 68 2.7 SW 32 41 17 22 1018.9 1018.9 0.0
23/05:00pm 12.2 6.1 6.5 68 2.7 WSW 28 35 15 19 1018.9 1018.9 0.0
23/04:35pm 12.3 4.5 6.6 68 2.7 SW 37 56 20 30 1018.5 1018.5 0.0
23/04:30pm 11.9 3.8 7.0 72 2.3 SW 39 56 21 30 1018.5 1018.5 0.0
23/04:00pm 13.3 6.3 5.9 61 3.5 WSW 32 43 17 23 1018.2 1018.2 0.0
23/03:55pm 13.0 5.4 5.7 61 3.4 WSW 35 54 19 29 1018.3 1018.3 0.0
23/03:30pm 13.6 5.1 5.3 57 3.9 SW 39 48 21 26 1018.2 1018.2 0.0
23/03:00pm 13.0 7.3 6.6 65 3.1 WSW 26 35 14 19 1018.2 1018.2 0.0
23/02:30pm 13.9 7.2 5.8 58 3.8 WSW 30 44 16 24 1018.0 1018.0 0.0
23/02:00pm 14.6 7.3 7.4 62 3.5 SW 35 46 19 25 1018.0 1018.0 0.0
23/01:30pm 15.0 6.9 7.1 59 3.9 SW 39 50 21 27 1018.1 1018.1 0.0
23/01:08pm 13.7 5.5 6.6 62 3.4 SW 39 61 21 33 1018.0 1018.0 0.0
23/01:00pm 15.3 7.7 5.8 53 4.5 SW 35 46 19 25 1018.2 1018.2 0.0
23/12:30pm 14.3 5.7 6.6 60 3.7 SW 41 52 22 28 1018.2 1018.2 0.0
23/12:00pm 15.2 7.8 6.7 57 4.1 SW 35 46 19 25 1018.3 1018.3 0.0
23/11:30am 14.9 7.6 7.0 59 3.9 WSW 35 44 19 24 1018.3 1018.3 0.0
23/11:15am 15.2 9.1 6.7 57 4.1 WSW 28 46 15 25 1018.3 1018.3 0.0
23/11:00am 12.7 6.4 7.2 69 2.7 WSW 30 43 16 23 1018.5 1018.5 0.0
23/10:47am 13.5 6.1 6.6 63 3.3 WSW 35 54 19 29 1018.4 1018.4 0.0
23/10:30am 14.0 8.2 8.0 67 3.0 WSW 28 39 15 21 1018.5 1018.5 0.0
23/10:00am 11.5 4.9 8.5 82 1.5 SW 33 57 18 31 1018.6 1018.6 0.0
23/09:42am 13.8 7.4 6.9 63 3.3 WSW 30 48 16 26 1018.1 1018.1 0.0
23/09:30am 13.6 7.3 7.2 65 3.1 WSW 30 39 16 21 1018.1 1018.1 0.0
23/09:00am 12.7 5.8 7.4 70 2.6 WSW 33 48 18 26 1018.1 1018.1 0.4
23/08:30am 13.2 8.1 7.6 69 2.7 WSW 24 33 13 18 1017.7 1017.7 0.4
23/08:00am 12.3 6.0 7.2 71 2.5 WSW 30 41 16 22 1017.5 1017.5 0.4
23/07:30am 11.8 6.6 7.1 73 2.2 W 24 33 13 18 1017.3 1017.3 0.4
23/07:00am 11.1 6.2 7.0 76 2.0 W 22 30 12 16 1016.9 1016.9 0.4
23/06:30am 10.3 5.7 6.6 78 1.7 W 20 26 11 14 1016.7 1016.7 0.4
23/06:00am 10.5 6.0 6.8 78 1.7 W 20 28 11 15 1016.3 1016.3 0.4
23/05:30am 10.8 5.9 6.9 77 1.8 W 22 33 12 18 1015.7 1015.7 0.4
23/05:00am 10.5 5.2 6.6 77 1.8 W 24 30 13 16 1015.4 1015.4 0.4
23/04:30am 10.5 6.0 6.8 78 1.7 W 20 30 11 16 1015.2 1015.2 0.4
23/04:00am 10.7 5.8 7.0 78 1.8 W 22 30 12 16 1015.1 1015.1 0.4
23/03:30am 10.9 5.6 7.0 77 1.9 W 24 32 13 17 1015.0 1015.0 0.4
23/03:00am 11.2 6.0 7.1 76 2.0 W 24 33 13 18 1014.9 1014.9 0.4
23/02:30am 10.7 5.8 6.8 77 1.8 W 22 32 12 17 1015.0 1015.0 0.4
23/02:00am 10.9 6.5 7.2 78 1.8 W 20 28 11 15 1015.2 1015.2 0.4
23/01:30am 11.0 6.6 7.5 79 1.7 W 20 26 11 14 1015.3 1015.3 0.4
23/01:00am 11.4 6.6 7.5 77 1.9 W 22 30 12 16 1015.4 1015.4 0.4
23/12:30am 11.4 6.7 7.7 78 1.8 WNW 22 30 12 16 1015.5 1015.5 0.4
23/12:00am 11.4 6.7 7.7 78 1.8 WNW 22 32 12 17 1015.4 1015.4 0.4
 
Date/Time
CST
Temp
°C
App
Temp
°C
Dew
Point
°C
Rel
Hum
%
Delta-T
°C
Wind Press
QNH
hPa
Press
MSL
hPa
Rain since
9am
mm
Dir  Spd
km/h
Gust
km/h
Spd
kts
Gust
kts
22/11:30pm 11.6 6.8 7.5 76 2.0 WNW 22 30 12 16 1015.4 1015.4 0.4
22/11:00pm 11.4 7.3 7.7 78 1.8 WNW 19 28 10 15 1015.6 1015.6 0.4
22/10:30pm 11.5 7.8 7.8 78 1.8 WNW 17 22 9 12 1015.7 1015.7 0.4
22/10:00pm 11.7 7.4 7.8 77 1.9 W 20 28 11 15 1015.7 1015.7 0.4
22/09:30pm 11.6 6.9 7.7 77 1.9 W 22 32 12 17 1015.6 1015.6 0.4
22/09:00pm 11.8 5.9 7.3 74 2.2 WNW 28 37 15 20 1015.5 1015.5 0.4
22/08:30pm 12.1 7.5 8.2 77 1.9 WNW 22 30 12 16 1015.4 1015.4 0.4
22/08:00pm 12.1 8.2 8.6 79 1.7 W 19 24 10 13 1015.1 1015.1 0.4
22/07:30pm 12.5 7.6 8.4 76 2.0 WNW 24 39 13 21 1014.9 1014.9 0.2
22/07:00pm 13.1 7.7 7.8 70 2.6 W 26 37 14 20 1014.3 1014.3 0.2
22/06:30pm 13.3 8.3 8.0 70 2.6 W 24 37 13 20 1014.0 1014.0 0.2
22/06:00pm 13.7 6.8 7.2 65 3.2 W 33 44 18 24 1013.7 1013.7 0.2
22/05:30pm 14.6 7.5 6.4 58 4.0 W 33 52 18 28 1013.2 1013.2 0.2
22/05:25pm 14.8 7.9 6.6 58 4.0 W 32 50 17 27 1013.1 1013.1 0.2
22/05:00pm 15.0 8.2 7.1 59 3.9 WNW 32 43 17 23 1012.9 1012.9 0.2
22/04:30pm 15.5 8.1 6.8 56 4.3 WNW 35 50 19 27 1012.2 1012.2 0.2
22/04:00pm 16.0 9.1 7.2 56 4.4 WNW 33 44 18 24 1012.0 1012.0 0.2
22/03:30pm 16.2 8.1 7.2 55 4.5 W 39 50 21 27 1011.8 1011.8 0.2
22/03:00pm 16.3 8.4 6.2 51 4.9 WNW 37 52 20 28 1011.6 1011.6 0.2
22/02:32pm 15.7 8.2 6.2 53 4.6 W 35 56 19 30 1011.5 1011.5 0.2
22/02:30pm 16.3 9.3 6.7 53 4.7 W 33 46 18 25 1011.5 1011.5 0.2
22/02:11pm 16.0 7.8 6.7 54 4.6 W 39 57 21 31 1011.4 1011.4 0.2
22/02:00pm 16.1 8.1 7.6 57 4.2 W 39 54 21 29 1011.3 1011.3 0.2
22/01:43pm 15.2 7.5 7.3 59 3.9 W 37 56 20 30 1011.2 1011.2 0.2
22/01:30pm 16.5 9.5 6.9 53 4.7 W 33 46 18 25 1011.2 1011.2 0.2
22/01:29pm 16.6 9.7 7.3 54 4.6 W 33 52 18 28 1011.2 1011.2 0.2
22/01:00pm 15.7 7.8 7.7 59 4.0 WNW 39 52 21 28 1011.0 1011.0 0.2
22/12:38pm 16.1 8.2 7.8 58 4.2 W 39 57 21 31 1011.0 1011.0 0.2
22/12:30pm 15.7 6.8 7.0 56 4.3 W 43 57 23 31 1011.0 1011.0 0.2
22/12:00pm 15.9 8.5 8.4 61 3.8 W 37 54 20 29 1011.0 1011.0 0.0
22/11:39am 15.5 7.3 8.3 62 3.6 W 41 59 22 32 1010.8 1010.8 0.0
22/11:30am 15.2 7.3 8.0 62 3.6 W 39 54 21 29 1010.7 1010.7 0.0
22/11:12am 15.8 9.1 8.3 61 3.8 W 33 52 18 28 1010.7 1010.7 0.0
22/11:00am 15.2 7.7 8.0 62 3.6 W 37 50 20 27 1010.7 1010.7 0.0
22/10:30am 15.0 6.8 8.3 64 3.4 WNW 41 65 22 35 1010.3 1010.3 0.0
22/10:00am 14.8 7.9 8.7 67 3.1 WNW 35 59 19 32 1009.9 1009.9 0.0
22/09:30am 14.2 5.7 8.4 68 2.9 W 43 61 23 33 1009.4 1009.4 0.0
22/09:06am 14.2 7.0 7.7 65 3.2 WNW 35 59 19 32 1009.0 1009.0 0.0
22/09:00am 14.4 7.4 8.6 68 2.9 WNW 35 50 19 27 1008.9 1008.9 1.8
22/08:30am 13.5 6.0 8.1 70 2.7 WNW 37 59 20 32 1008.4 1008.4 1.8
22/08:06am 12.4 4.9 7.9 74 2.2 WNW 37 56 20 30 1008.2 1008.2 1.8
22/08:00am 12.5 5.1 8.4 76 2.0 WNW 37 52 20 28 1008.2 1008.2 1.8
22/07:33am 12.1 5.0 8.2 77 1.9 WNW 35 54 19 29 1007.8 1007.8 1.8
22/07:30am 11.8 4.0 8.1 78 1.8 WNW 39 54 21 29 1007.7 1007.7 1.8
22/07:00am 12.2 5.0 7.7 74 2.2 WNW 35 54 19 29 1007.3 1007.3 1.8
22/06:47am 12.1 4.9 7.8 75 2.1 WNW 35 54 19 29 1007.0 1007.0 1.8
22/06:30am 12.4 5.1 7.3 71 2.5 WNW 35 48 19 26 1007.0 1007.0 1.8
22/06:07am 12.3 5.7 7.6 73 2.3 WNW 32 54 17 29 1006.9 1006.9 1.6
22/06:00am 12.3 5.6 7.4 72 2.4 WNW 32 43 17 23 1006.8 1006.8 1.6
22/05:30am 12.1 5.2 7.2 72 2.4 WNW 33 56 18 30 1006.2 1006.2 1.6
22/05:18am 11.8 5.0 7.9 77 1.9 WNW 33 52 18 28 1006.2 1006.2 1.6
22/05:00am 12.4 4.0 7.3 71 2.5 WNW 41 54 22 29 1005.8 1005.8 1.6
22/04:41am 12.3 5.0 7.0 70 2.5 WNW 35 57 19 31 1005.5 1005.5 1.6
22/04:30am 11.9 5.6 7.2 73 2.3 WNW 30 46 16 25 1005.6 1005.6 1.6
22/04:00am 12.4 4.7 7.3 71 2.5 WNW 37 57 20 31 1005.7 1005.7 1.6
22/03:30am 12.6 5.8 7.1 69 2.7 WNW 32 50 17 27 1005.7 1005.7 1.6
22/03:24am 12.5 6.5 7.2 70 2.6 WNW 28 50 15 27 1005.8 1005.8 1.6
22/03:00am 12.6 6.7 7.3 70 2.6 NW 28 43 15 23 1005.8 1005.8 1.6
22/02:49am 12.5 6.5 7.0 69 2.6 NW 28 48 15 26 1005.8 1005.8 1.6
22/02:30am 12.5 5.8 7.2 70 2.6 WNW 32 46 17 25 1006.0 1006.0 1.6
22/02:01am 12.4 5.6 7.1 70 2.6 WNW 32 50 17 27 1006.1 1006.1 1.4
22/02:00am 12.3 6.0 7.2 71 2.5 WNW 30 46 16 25 1006.2 1006.2 1.4
22/01:30am 12.5 6.6 7.6 72 2.4 NW 28 44 15 24 1006.4 1006.4 1.4
22/01:00am 12.4 6.1 7.3 71 2.5 WNW 30 44 16 24 1006.5 1006.5 1.4
22/12:49am 12.5 6.2 7.2 70 2.6 WNW 30 48 16 26 1006.4 1006.4 1.4
22/12:30am 12.3 6.8 7.6 73 2.3 NW 26 41 14 22 1006.6 1006.6 1.4
22/12:20am 12.1 6.2 7.6 74 2.2 WNW 28 46 15 25 1006.7 1006.7 1.4
22/12:00am 12.0 6.6 7.9 76 2.0 WNW 26 37 14 20 1006.8 1006.8 1.4
 
Date/Time
CST
Temp
°C
App
Temp
°C
Dew
Point
°C
Rel
Hum
%
Delta-T
°C
Wind Press
QNH
hPa
Press
MSL
hPa
Rain since
9am
mm
Dir  Spd
km/h
Gust
km/h
Spd
kts
Gust
kts
21/11:43pm 12.4 5.9 8.3 76 2.0 NW 32 54 17 29 1006.7 1006.7 1.4
21/11:30pm 12.7 6.9 8.0 73 2.3 NW 28 41 15 22 1006.8 1006.8 1.4
21/11:00pm 12.7 7.2 7.6 71 2.5 NW 26 39 14 21 1006.8 1006.8 1.4
21/10:30pm 12.8 7.4 7.9 72 2.4 WNW 26 41 14 22 1006.6 1006.6 1.4
21/10:26pm 12.8 7.0 7.9 72 2.4 WNW 28 46 15 25 1006.7 1006.7 1.4
21/10:00pm 12.3 7.9 8.8 79 1.7 WNW 22 32 12 17 1006.7 1006.7 1.4

Other formats

Comma delimited format used in spreadsheet applications
http://www.bom.gov.au/fwo/IDS60801/IDS60801.94677.axf

JavaScript Object Notation format (JSON) in row-major order
http://www.bom.gov.au/fwo/IDS60801/IDS60801.94677.json

Data quality

Most of these data are generated automatically and are frequently updated. Quality checks on data are not normally performed. It is possible for incorrect values to appear. Refer to information at About Latest Weather Observations and please check the disclaimer before using these data.